createdAt,value
2022-09-10T00:00:56.843Z,2.9
2022-09-10T00:02:56.456Z,2.9
2022-09-10T00:04:56.359Z,3
2022-09-10T00:06:56.607Z,3
2022-09-10T00:08:58.174Z,3
2022-09-10T00:10:56.514Z,3.1
2022-09-10T00:12:56.346Z,3.1
2022-09-10T00:14:56.405Z,3.1
2022-09-10T00:16:56.284Z,3.1
2022-09-10T00:18:56.342Z,3.1
2022-09-10T00:20:57.836Z,3.2
2022-09-10T00:22:56.253Z,3.2
2022-09-10T00:24:56.299Z,3.2
2022-09-10T00:26:56.269Z,3.3
2022-09-10T00:28:57.972Z,3.3
2022-09-10T00:30:56.243Z,3.3
2022-09-10T00:32:56.651Z,3.3
2022-09-10T00:34:56.278Z,3.2
2022-09-10T00:36:56.220Z,3.3
2022-09-10T00:39:00.177Z,3.3
2022-09-10T00:41:02.832Z,3.3
2022-09-10T00:42:56.767Z,3.3
2022-09-10T00:45:00.510Z,3.5
2022-09-10T00:46:56.270Z,3.6
2022-09-10T00:48:58.581Z,3.4
2022-09-10T00:51:01.149Z,3.4
2022-09-10T00:53:02.146Z,3.2
2022-09-10T00:54:56.909Z,3.2
2022-09-10T00:57:01.987Z,3.2
2022-09-10T00:58:56.679Z,3.2
2022-09-10T01:00:59.695Z,3.4
2022-09-10T01:02:56.435Z,3.3
2022-09-10T01:04:57.108Z,3.3
2022-09-10T01:06:56.369Z,3.4
2022-09-10T01:08:56.170Z,3.5
2022-09-10T01:11:09.880Z,3.4
2022-09-10T01:13:18.664Z,3.5
2022-09-10T01:15:07.140Z,3.5
2022-09-10T01:17:05.657Z,3.5
2022-09-10T01:19:07.161Z,3.5
2022-09-10T01:21:05.216Z,3.6
2022-09-10T01:23:17.605Z,3.6
2022-09-10T01:25:01.067Z,3.6
2022-09-10T01:27:24.973Z,3.7
2022-09-10T01:29:01.650Z,3.7
2022-09-10T01:31:03.732Z,3.6
2022-09-10T01:33:06.421Z,3.6
2022-09-10T01:35:03.444Z,3.7
2022-09-10T01:37:03.101Z,3.8
2022-09-10T01:38:57.674Z,3.8
2022-09-10T01:40:58.322Z,3.8
2022-09-10T01:42:59.586Z,3.8
2022-09-10T01:45:00.328Z,3.8
2022-09-10T01:47:05.181Z,4
2022-09-10T01:49:07.763Z,4.1
2022-09-10T01:51:05.367Z,4.1
2022-09-10T01:53:11.648Z,4.2
2022-09-10T01:55:17.715Z,4.1
2022-09-10T01:57:07.839Z,4.1
2022-09-10T01:59:10.108Z,4
2022-09-10T02:01:07.378Z,3.8
2022-09-10T02:03:03.485Z,4
2022-09-10T02:04:58.210Z,4
2022-09-10T02:06:56.128Z,3.9
2022-09-10T02:08:59.501Z,3.9
2022-09-10T02:10:59.972Z,3.8
2022-09-10T02:13:11.105Z,3.9
2022-09-10T02:15:17.947Z,3.9
2022-09-10T02:16:59.365Z,3.9
2022-09-10T02:18:57.989Z,3.9
2022-09-10T02:20:58.543Z,3.9
2022-09-10T02:22:57.948Z,3.9
2022-09-10T02:24:56.111Z,3.9
2022-09-10T02:26:56.252Z,3.8
2022-09-10T02:28:56.109Z,3.7
2022-09-10T02:30:56.206Z,3.7
2022-09-10T02:32:56.200Z,3.7
2022-09-10T02:34:56.486Z,3.7
2022-09-10T02:36:56.448Z,3.8
2022-09-10T02:38:56.258Z,3.9
2022-09-10T02:40:57.438Z,3.9
2022-09-10T02:42:57.485Z,3.9
2022-09-10T02:44:56.253Z,3.9
2022-09-10T02:46:56.237Z,3.9
2022-09-10T02:48:56.750Z,4
2022-09-10T02:50:56.553Z,4
2022-09-10T02:52:56.170Z,4
2022-09-10T02:54:56.209Z,4
2022-09-10T02:56:56.523Z,4
2022-09-10T02:58:56.610Z,4
2022-09-10T03:01:05.527Z,4
2022-09-10T03:02:58.654Z,4
2022-09-10T03:04:58.379Z,4
2022-09-10T03:06:57.130Z,4.2
2022-09-10T03:08:56.232Z,4.3
2022-09-10T03:10:56.352Z,4.3
2022-09-10T03:12:57.809Z,4.3
2022-09-10T03:14:56.383Z,4.3
2022-09-10T03:16:58.346Z,4.4
2022-09-10T03:18:56.297Z,4.4
2022-09-10T03:21:08.128Z,4.4
2022-09-10T03:22:56.337Z,4.4
2022-09-10T03:24:56.872Z,4.4
2022-09-10T03:26:56.843Z,4.7
2022-09-10T03:28:58.554Z,4.7
2022-09-10T03:30:56.721Z,4.7
2022-09-10T03:32:56.403Z,4.8
2022-09-10T03:34:56.427Z,4.6
2022-09-10T03:36:56.555Z,4.6
2022-09-10T03:38:57.217Z,4.6
2022-09-10T03:40:58.168Z,4.6
2022-09-10T03:42:56.923Z,4.6
2022-09-10T03:44:57.217Z,4.6
2022-09-10T03:46:56.563Z,4.7
2022-09-10T03:48:58.264Z,4.7
2022-09-10T03:50:56.932Z,4.7
2022-09-10T03:52:56.710Z,4.8
2022-09-10T03:54:56.790Z,4.8
2022-09-10T03:56:56.843Z,4.9
2022-09-10T03:58:56.853Z,5
2022-09-10T04:00:56.876Z,5
2022-09-10T04:02:57.098Z,5
2022-09-10T04:04:56.786Z,5
2022-09-10T04:06:56.963Z,5
2022-09-10T04:08:57.052Z,5.1
2022-09-10T04:11:01.820Z,5.1
2022-09-10T04:12:56.938Z,5.2
2022-09-10T04:14:58.377Z,5.2
2022-09-10T04:16:57.441Z,5.4
2022-09-10T04:18:57.429Z,5.5
2022-09-10T04:20:57.495Z,5.7
2022-09-10T04:22:57.581Z,5.7
2022-09-10T04:24:57.315Z,5.8
2022-09-10T04:26:57.295Z,5.9
2022-09-10T04:28:57.414Z,5.9
2022-09-10T04:30:58.566Z,6
2022-09-10T04:32:58.135Z,6
2022-09-10T04:34:58.346Z,6.1
2022-09-10T04:36:57.613Z,6.3
2022-09-10T04:38:58.617Z,6.3
2022-09-10T04:40:58.240Z,6.5
2022-09-10T04:42:57.882Z,6.6
2022-09-10T04:44:58.116Z,6.6
2022-09-10T04:46:58.620Z,6.7
2022-09-10T04:48:58.326Z,6.8
2022-09-10T04:52:58.068Z,7
2022-09-10T04:54:58.799Z,7.1
2022-09-10T04:56:58.262Z,7.2
2022-09-10T04:58:59.386Z,7.4
2022-09-10T05:00:58.904Z,7.5
2022-09-10T05:02:58.732Z,7.8
2022-09-10T05:04:58.543Z,7.9
2022-09-10T05:06:58.878Z,7.9
2022-09-10T05:08:59.699Z,8
2022-09-10T05:10:58.829Z,8
2022-09-10T05:12:59.967Z,8
2022-09-10T05:15:00.401Z,8
2022-09-10T05:17:02.405Z,8.2
2022-09-10T05:19:00.474Z,8.3
2022-09-10T05:21:00.796Z,8.3
2022-09-10T05:22:59.644Z,8.3
2022-09-10T05:25:00.086Z,8.6
2022-09-10T05:25:52.048Z,8.8
2022-09-10T05:26:44.355Z,8.8
2022-09-10T05:27:07.335Z,8.9
2022-09-10T05:27:38.684Z,8.9
2022-09-10T05:29:00.019Z,9
2022-09-10T05:31:01.593Z,8.9
2022-09-10T05:33:01.605Z,9.2
2022-09-10T05:35:00.592Z,9.3
2022-09-10T05:37:00.684Z,9.4
2022-09-10T05:39:02.820Z,9.5
2022-09-10T05:41:00.819Z,9.5
2022-09-10T05:43:01.058Z,9.7
2022-09-10T05:45:01.361Z,9.7
2022-09-10T05:47:01.567Z,9.9
2022-09-10T05:49:01.447Z,10
2022-09-10T05:51:01.583Z,10
2022-09-10T05:53:03.087Z,10.2
2022-09-10T05:55:03.047Z,10.2
2022-09-10T05:57:02.346Z,10
2022-09-10T05:59:02.730Z,10.2
2022-09-10T06:01:03.488Z,10.3
2022-09-10T06:03:07.713Z,10.2
2022-09-10T06:05:03.376Z,10.2
2022-09-10T06:07:05.877Z,10.3
2022-09-10T06:09:18.540Z,10.6
2022-09-10T06:11:11.309Z,10.6
2022-09-10T06:13:05.499Z,10.6
2022-09-10T06:15:04.847Z,11
2022-09-10T06:17:05.651Z,11
2022-09-10T06:19:05.663Z,10.9
2022-09-10T06:21:07.358Z,10.8
2022-09-10T06:23:05.448Z,11
2022-09-10T06:25:05.941Z,11
2022-09-10T06:27:05.894Z,11.1
2022-09-10T06:29:07.031Z,11.2
2022-09-10T06:31:08.893Z,11.1
2022-09-10T06:33:06.046Z,11.3
2022-09-10T06:35:06.668Z,11.3
2022-09-10T06:37:09.452Z,11.3
2022-09-10T06:39:18.394Z,11.2
2022-09-10T06:41:15.020Z,11.4
2022-09-10T06:43:25.036Z,11.5
2022-09-10T06:45:22.243Z,11.5
2022-09-10T06:47:50.946Z,11.6
2022-09-10T06:49:11.319Z,11.7
2022-09-10T06:51:11.753Z,11.7
2022-09-10T06:53:08.248Z,11.9
2022-09-10T06:55:13.112Z,12
2022-09-10T06:57:08.717Z,11.8
2022-09-10T06:59:14.723Z,11.8
2022-09-10T07:01:15.244Z,12.1
2022-09-10T07:03:09.461Z,12
2022-09-10T07:05:11.006Z,12
2022-09-10T07:07:09.986Z,12.2
2022-09-10T07:09:16.563Z,12.1
2022-09-10T07:11:15.532Z,12.2
2022-09-10T07:13:12.883Z,12.2
2022-09-10T07:15:10.974Z,12.6
2022-09-10T07:17:12.467Z,12.6
2022-09-10T07:19:16.378Z,12.6
2022-09-10T07:21:16.390Z,12.5
2022-09-10T07:23:12.913Z,12.4
2022-09-10T07:25:26.852Z,12.2
2022-09-10T07:27:15.266Z,12.2
2022-09-10T07:29:12.597Z,12.2
2022-09-10T07:31:15.886Z,12.2
2022-09-10T07:33:15.865Z,12.2
2022-09-10T07:35:13.645Z,12.1
2022-09-10T07:37:13.958Z,12.1
2022-09-10T07:39:14.958Z,12.1
2022-09-10T07:41:15.175Z,12
2022-09-10T07:43:14.557Z,12.1
2022-09-10T07:45:14.792Z,12.3
2022-09-10T07:47:15.152Z,12.5
2022-09-10T07:49:18.679Z,12.8
2022-09-10T07:51:16.221Z,12.9
2022-09-10T07:53:18.386Z,12.9
2022-09-10T07:55:16.618Z,13
2022-09-10T07:57:16.367Z,13
2022-09-10T07:59:23.586Z,13.1
2022-09-10T08:01:17.344Z,13
2022-09-10T08:03:17.911Z,13.3
2022-09-10T08:05:18.246Z,13.3
2022-09-10T08:07:17.771Z,13.1
2022-09-10T08:09:23.024Z,13.1
2022-09-10T08:11:22.282Z,13.2
2022-09-10T08:13:18.677Z,13.3
2022-09-10T08:15:19.604Z,13
2022-09-10T08:17:18.982Z,13.3
2022-09-10T08:19:19.204Z,13.3
2022-09-10T08:21:20.360Z,13.3
2022-09-10T08:23:19.643Z,13.2
2022-09-10T08:25:20.353Z,13.6
2022-09-10T08:27:21.065Z,13.5
2022-09-10T08:29:20.329Z,13.5
2022-09-10T08:31:26.961Z,13.6
2022-09-10T08:33:21.729Z,13.6
2022-09-10T08:35:21.307Z,13.6
2022-09-10T08:37:21.339Z,13.7
2022-09-10T08:39:21.629Z,13.9
2022-09-10T08:41:30.150Z,13.9
2022-09-10T08:43:31.961Z,14
2022-09-10T08:45:27.710Z,13.8
2022-09-10T08:47:34.144Z,13.8
2022-09-10T08:49:30.885Z,13.7
2022-09-10T08:51:29.576Z,13.7
2022-09-10T08:53:29.088Z,13.9
2022-09-10T08:55:28.567Z,14
2022-09-10T08:57:29.127Z,13.9
2022-09-10T08:59:29.216Z,13.9
2022-09-10T09:01:31.625Z,13.9
2022-09-10T09:03:32.495Z,13.9
2022-09-10T09:05:27.393Z,13.6
2022-09-10T09:07:30.492Z,13.4
2022-09-10T09:09:25.818Z,13.4
2022-09-10T09:11:40.661Z,13.5
2022-09-10T09:13:42.010Z,13.4
2022-09-10T09:15:36.905Z,13.3
2022-09-10T09:17:37.727Z,13.4
2022-09-10T09:19:32.063Z,13.6
2022-09-10T09:21:38.807Z,13.6
2022-09-10T09:23:34.755Z,13.3
2022-09-10T09:25:33.165Z,13.3
2022-09-10T09:27:35.997Z,13.4
2022-09-10T09:29:34.267Z,13.4
2022-09-10T09:31:37.960Z,13.4
2022-09-10T09:33:29.508Z,13.2
2022-09-10T09:35:33.083Z,13.4
2022-09-10T09:37:31.022Z,13.5
2022-09-10T09:39:37.335Z,13.3
2022-09-10T09:41:34.214Z,13.3
2022-09-10T09:43:37.866Z,13.3
2022-09-10T09:45:36.442Z,13.5
2022-09-10T09:47:30.749Z,13.7
2022-09-10T09:49:30.668Z,13.8
2022-09-10T09:51:30.746Z,14
2022-09-10T09:53:30.967Z,14.2
2022-09-10T09:55:37.212Z,14.3
2022-09-10T09:57:31.756Z,14.1
2022-09-10T09:59:33.481Z,14.1
2022-09-10T10:01:33.475Z,13.9
2022-09-10T10:03:37.249Z,13.9
2022-09-10T10:05:32.535Z,13.6
2022-09-10T10:07:34.827Z,13.3
2022-09-10T10:09:36.420Z,13
2022-09-10T10:11:49.741Z,13.2
2022-09-10T10:13:37.562Z,13.4
2022-09-10T10:15:36.424Z,13.3
2022-09-10T10:17:36.887Z,13.2
2022-09-10T10:19:35.860Z,13.2
2022-09-10T10:21:34.646Z,13.5
2022-09-10T10:23:36.678Z,13.6
2022-09-10T10:25:37.402Z,13.5
2022-09-10T10:27:37.306Z,13.4
2022-09-10T10:29:35.864Z,13.4
2022-09-10T10:31:39.751Z,13.5
2022-09-10T10:33:44.614Z,13.5
2022-09-10T10:35:42.984Z,13.7
2022-09-10T10:37:47.193Z,13.7
2022-09-10T10:39:59.006Z,13.5
2022-09-10T10:41:49.258Z,13.5
2022-09-10T10:43:50.233Z,13.5
2022-09-10T10:45:48.106Z,13.6
2022-09-10T10:47:46.995Z,13.7
2022-09-10T10:49:52.956Z,13.7
2022-09-10T10:51:48.601Z,13.7
2022-09-10T10:53:55.190Z,13.7
2022-09-10T10:55:43.830Z,13.8
2022-09-10T10:57:56.117Z,13.8
2022-09-10T10:59:51.425Z,13.8
2022-09-10T11:01:43.851Z,13.5
2022-09-10T11:03:44.281Z,13.7
2022-09-10T11:05:44.957Z,13.7
2022-09-10T11:07:43.053Z,13.8
2022-09-10T11:09:47.631Z,13.9
2022-09-10T11:11:51.508Z,13.9
2022-09-10T11:13:48.995Z,13.7
2022-09-10T11:15:47.699Z,13.7
2022-09-10T11:17:48.742Z,13.7
2022-09-10T11:19:53.338Z,13.7
2022-09-10T11:21:49.945Z,13.7
2022-09-10T11:23:48.006Z,13.7
2022-09-10T11:25:54.113Z,13.9
2022-09-10T11:27:48.272Z,13.9
2022-09-10T11:29:50.433Z,13.8
2022-09-10T11:31:49.396Z,13.8
2022-09-10T11:33:54.382Z,13.7
2022-09-10T11:35:50.122Z,13.5
2022-09-10T11:37:54.240Z,13.5
2022-09-10T11:39:48.417Z,13.4
2022-09-10T11:41:48.323Z,13.4
2022-09-10T11:43:51.983Z,13.4
2022-09-10T11:45:49.837Z,13.4
2022-09-10T11:47:51.564Z,13.4
2022-09-10T11:49:52.893Z,13.5
2022-09-10T11:51:46.613Z,13.5
2022-09-10T11:53:47.044Z,13.5
2022-09-10T11:56:02.502Z,13.5
2022-09-10T11:57:57.712Z,13.5
2022-09-10T12:00:06.504Z,13.5
2022-09-10T12:02:17.593Z,13.5
2022-09-10T12:04:03.366Z,13.5
2022-09-10T12:05:58.829Z,13.5
2022-09-10T12:07:59.125Z,13.5
2022-09-10T12:10:00.831Z,13.5
2022-09-10T12:11:58.716Z,13.5
2022-09-10T12:13:49.946Z,13.5
2022-09-10T12:15:54.027Z,13.5
2022-09-10T12:17:54.756Z,13.5
2022-09-10T12:19:52.994Z,13.5
2022-09-10T12:21:54.831Z,13.5
2022-09-10T12:23:50.746Z,13.5
2022-09-10T12:25:57.732Z,13.5
2022-09-10T12:27:53.014Z,13.5
2022-09-10T12:29:51.178Z,13.5
2022-09-10T12:32:14.692Z,13.5
2022-09-10T12:34:15.053Z,13.7
2022-09-10T12:35:52.523Z,13.6
2022-09-10T12:38:26.558Z,13.6
2022-09-10T12:40:21.746Z,13.6
2022-09-10T12:41:58.892Z,13.6
2022-09-10T12:43:55.331Z,13.6
2022-09-10T12:46:03.362Z,13.6
2022-09-10T12:47:53.373Z,13.6
2022-09-10T12:49:56.181Z,13.6
2022-09-10T12:51:58.569Z,13.6
2022-09-10T12:54:09.979Z,13.6
2022-09-10T12:56:01.213Z,13.6
2022-09-10T12:58:06.100Z,13.6
2022-09-10T13:00:15.987Z,13.6
2022-09-10T13:01:56.033Z,13.6
2022-09-10T13:03:57.762Z,13.6
2022-09-10T13:05:58.715Z,13.5
2022-09-10T13:08:03.286Z,13.5
2022-09-10T13:10:00.802Z,13.5
2022-09-10T13:12:00.050Z,13.4
2022-09-10T13:14:00.671Z,13.4
2022-09-10T13:15:56.803Z,13.3
2022-09-10T13:18:21.411Z,13.3
2022-09-10T13:20:12.919Z,13.3
2022-09-10T13:21:57.401Z,13.3
2022-09-10T13:23:57.629Z,13.3
2022-09-10T13:26:27.638Z,13.4
2022-09-10T13:27:58.066Z,13.4
2022-09-10T13:30:14.203Z,13.4
2022-09-10T13:32:02.129Z,13.4
2022-09-10T13:34:23.031Z,13.4
2022-09-10T13:36:20.555Z,13.3
2022-09-10T13:38:13.243Z,13.3
2022-09-10T13:40:24.128Z,13.3
2022-09-10T13:42:14.519Z,13.3
2022-09-10T13:44:13.940Z,13.3
2022-09-10T13:46:06.153Z,13.3
2022-09-10T13:48:05.161Z,13.2
2022-09-10T13:50:05.991Z,13.2
2022-09-10T13:52:04.808Z,13.2
2022-09-10T13:54:07.377Z,13.3
2022-09-10T13:56:09.279Z,13.3
2022-09-10T13:58:07.998Z,13.2
2022-09-10T14:00:06.563Z,13.2
2022-09-10T14:02:02.097Z,13.2
2022-09-10T14:04:20.854Z,13.2
2022-09-10T14:06:04.418Z,13.2
2022-09-10T14:08:09.823Z,13.1
2022-09-10T14:10:06.229Z,13.1
2022-09-10T14:12:07.610Z,13.1
2022-09-10T14:14:07.153Z,13
2022-09-10T14:16:07.278Z,13
2022-09-10T14:18:04.437Z,13
2022-09-10T14:20:20.039Z,13
2022-09-10T14:22:09.431Z,12.8
2022-09-10T14:24:05.073Z,12.8
2022-09-10T14:26:15.720Z,12.8
2022-09-10T14:28:21.911Z,12.8
2022-09-10T14:30:23.694Z,12.8
2022-09-10T14:32:28.747Z,12.8
2022-09-10T14:34:24.700Z,12.8
2022-09-10T14:36:15.137Z,12.8
2022-09-10T14:38:21.328Z,12.8
2022-09-10T14:40:16.868Z,12.8
2022-09-10T14:42:10.172Z,12.8
2022-09-10T14:44:26.677Z,12.8
2022-09-10T14:46:36.774Z,12.9
2022-09-10T14:48:29.581Z,12.9
2022-09-10T14:50:28.424Z,12.9
2022-09-10T14:52:10.966Z,12.9
2022-09-10T14:54:08.464Z,12.9
2022-09-10T14:56:23.993Z,12.9
2022-09-10T14:58:10.201Z,12.9
2022-09-10T15:00:13.500Z,12.9
2022-09-10T15:02:15.387Z,12.9
2022-09-10T15:04:12.758Z,12.9
2022-09-10T15:06:10.663Z,12.8
2022-09-10T15:08:09.695Z,12.8
2022-09-10T15:10:10.844Z,12.7
2022-09-10T15:12:17.487Z,12.7
2022-09-10T15:14:14.215Z,12.6
2022-09-10T15:16:10.881Z,12.5
2022-09-10T15:18:12.568Z,12.5
2022-09-10T15:20:12.850Z,12.5
2022-09-10T15:22:19.317Z,12.5
2022-09-10T15:24:13.483Z,12.5
2022-09-10T15:26:13.485Z,12.4
2022-09-10T15:28:12.017Z,12.3
2022-09-10T15:30:12.354Z,12.3
2022-09-10T15:32:12.832Z,12.3
2022-09-10T15:34:12.691Z,12.2
2022-09-10T15:36:12.861Z,12.1
2022-09-10T15:38:13.888Z,12.1
2022-09-10T15:40:13.323Z,12.1
2022-09-10T15:42:13.531Z,11.9
2022-09-10T15:44:13.737Z,11.8
2022-09-10T15:46:15.630Z,11.8
2022-09-10T15:48:20.633Z,11.7
2022-09-10T15:49:15.383Z,13.6
2022-09-10T15:53:56.424Z,11.2
2022-09-10T15:54:16.158Z,11.2
2022-09-10T15:56:16.034Z,11.1
2022-09-10T15:58:15.516Z,12.9
2022-09-10T16:01:08.494Z,10.9
2022-09-10T16:02:16.836Z,10.9
2022-09-10T16:03:28.265Z,12.5
2022-09-10T16:04:15.669Z,10.8
2022-09-10T16:04:17.906Z,10.8
2022-09-10T16:06:16.837Z,10.7
2022-09-10T16:08:16.052Z,10.7
2022-09-10T16:10:16.563Z,10.6
2022-09-10T16:12:16.487Z,10.6
2022-09-10T16:14:16.792Z,10.5
2022-09-10T16:16:20.254Z,10.2
2022-09-10T16:18:17.030Z,10.2
2022-09-10T16:20:17.492Z,10.2
2022-09-10T16:22:20.499Z,10.1
2022-09-10T16:24:17.879Z,10.1
2022-09-10T16:26:19.677Z,10
2022-09-10T16:28:18.357Z,10
2022-09-10T16:30:18.227Z,10.1
2022-09-10T16:32:18.349Z,10.1
2022-09-10T16:34:19.756Z,10
2022-09-10T16:36:19.410Z,9.9
2022-09-10T16:38:18.905Z,9.9
2022-09-10T16:40:19.074Z,9.9
2022-09-10T16:42:19.220Z,9.9
2022-09-10T16:44:19.357Z,9.7
2022-09-10T16:46:19.895Z,9.7
2022-09-10T16:48:19.725Z,9.6
2022-09-10T16:50:20.041Z,9.6
2022-09-10T16:52:20.132Z,9.6
2022-09-10T16:54:20.417Z,9.6
2022-09-10T16:56:20.556Z,9.5
2022-09-10T16:58:20.508Z,9.4
2022-09-10T17:00:20.695Z,9.4
2022-09-10T17:02:20.819Z,9.4
2022-09-10T17:04:27.622Z,9.4
2022-09-10T17:06:23.765Z,9.4
2022-09-10T17:08:21.232Z,9.4
2022-09-10T17:10:21.412Z,9.4
2022-09-10T17:12:21.581Z,9.3
2022-09-10T17:14:22.036Z,9.3
2022-09-10T17:16:24.218Z,9.2
2022-09-10T17:18:21.990Z,9.2
2022-09-10T17:20:22.606Z,9.2
2022-09-10T17:22:22.301Z,9.2
2022-09-10T17:24:24.273Z,9
2022-09-10T17:26:23.092Z,8.9
2022-09-10T17:28:22.700Z,8.9
2022-09-10T17:30:22.747Z,8.9
2022-09-10T17:32:22.964Z,8.9
2022-09-10T17:34:23.082Z,8.9
2022-09-10T17:36:25.488Z,8.8
2022-09-10T17:38:23.701Z,8.8
2022-09-10T17:40:23.422Z,8.8
2022-09-10T17:42:23.623Z,8.8
2022-09-10T17:44:24.137Z,8.8
2022-09-10T17:46:24.311Z,8.7
2022-09-10T17:48:28.031Z,8.7
2022-09-10T17:50:24.019Z,8.6
2022-09-10T17:52:24.420Z,8.6
2022-09-10T17:54:24.233Z,8.6
2022-09-10T17:56:26.152Z,8.5
2022-09-10T17:58:24.950Z,8.5
2022-09-10T18:00:24.628Z,8.5
2022-09-10T18:02:24.883Z,8.4
2022-09-10T18:04:24.926Z,8.3
2022-09-10T18:06:25.429Z,8.3
2022-09-10T18:08:25.591Z,8.2
2022-09-10T18:10:25.219Z,8.1
2022-09-10T18:12:25.265Z,8.1
2022-09-10T18:14:25.477Z,8.1
2022-09-10T18:16:27.333Z,8.1
2022-09-10T18:18:25.724Z,8.1
2022-09-10T18:20:26.972Z,7.8
2022-09-10T18:22:25.937Z,7.8
2022-09-10T18:24:26.058Z,7.8
2022-09-10T18:26:27.936Z,7.7
2022-09-10T18:28:26.238Z,7.7
2022-09-10T18:30:26.570Z,7.6
2022-09-10T18:32:26.439Z,7.6
2022-09-10T18:34:28.650Z,7.6
2022-09-10T18:36:26.912Z,7.4
2022-09-10T18:38:26.680Z,7.3
2022-09-10T18:40:26.776Z,7.3
2022-09-10T18:42:26.980Z,7.3
2022-09-10T18:44:29.075Z,7.2
2022-09-10T18:46:27.624Z,7.3
2022-09-10T18:48:31.077Z,7.3
2022-09-10T18:50:27.255Z,7.3
2022-09-10T18:52:27.431Z,7.3
2022-09-10T18:54:27.817Z,7.1
2022-09-10T18:56:30.026Z,7.1
2022-09-10T18:58:27.688Z,7.1
2022-09-10T19:00:27.885Z,6.9
2022-09-10T19:02:27.929Z,6.9
2022-09-10T19:04:29.201Z,6.9
2022-09-10T19:06:29.717Z,6.8
2022-09-10T19:08:28.422Z,6.8
2022-09-10T19:10:28.475Z,6.8
2022-09-10T19:12:28.272Z,6.8
2022-09-10T19:14:29.928Z,6.8
2022-09-10T19:16:31.409Z,6.8
2022-09-10T19:18:30.403Z,6.7
2022-09-10T19:20:28.749Z,6.7
2022-09-10T19:22:28.720Z,6.8
2022-09-10T19:24:51.140Z,6.8
2022-09-10T19:26:31.764Z,6.8
2022-09-10T19:28:30.885Z,6.8
2022-09-10T19:30:32.646Z,6.8
2022-09-10T19:32:29.075Z,6.8
2022-09-10T19:34:29.368Z,6.7
2022-09-10T19:36:30.716Z,6.6
2022-09-10T19:38:46.701Z,6.6
2022-09-10T19:40:29.362Z,6.6
2022-09-10T19:42:29.522Z,6.6
2022-09-10T19:44:29.565Z,6.4
2022-09-10T19:46:29.860Z,6.4
2022-09-10T19:48:29.768Z,6.4
2022-09-10T19:50:30.048Z,6.4
2022-09-10T19:52:29.906Z,6.3
2022-09-10T19:54:29.967Z,6.2
2022-09-10T19:56:32.071Z,6.2
2022-09-10T19:58:30.456Z,6.2
2022-09-10T20:00:46.426Z,6.2
2022-09-10T20:02:30.357Z,6.2
2022-09-10T20:04:30.538Z,6.2
2022-09-10T20:06:31.257Z,6.1
2022-09-10T20:08:30.636Z,6
2022-09-10T20:10:30.793Z,5.9
2022-09-10T20:12:30.569Z,5.9
2022-09-10T20:14:30.606Z,5.9
2022-09-10T20:16:30.824Z,5.9
2022-09-10T20:18:32.630Z,5.9
2022-09-10T20:20:30.863Z,5.9
2022-09-10T20:22:34.697Z,5.8
2022-09-10T20:24:31.221Z,5.8
2022-09-10T20:26:32.554Z,5.8
2022-09-10T20:28:31.233Z,5.8
2022-09-10T20:30:31.204Z,5.8
2022-09-10T20:32:31.609Z,5.8
2022-09-10T20:34:31.365Z,5.8
2022-09-10T20:36:33.456Z,5.8
2022-09-10T20:38:32.266Z,5.8
2022-09-10T20:40:31.698Z,5.7
2022-09-10T20:42:31.574Z,5.8
2022-09-10T20:44:31.603Z,5.7
2022-09-10T20:46:31.781Z,5.6
2022-09-10T20:48:32.070Z,5.6
2022-09-10T20:50:32.612Z,5.6
2022-09-10T20:52:31.787Z,5.6
2022-09-10T20:54:31.936Z,5.6
2022-09-10T20:56:32.453Z,5.5
2022-09-10T20:58:32.510Z,5.5
2022-09-10T21:00:31.989Z,5.5
2022-09-10T21:02:32.320Z,5.5
2022-09-10T21:04:32.187Z,5.5
2022-09-10T21:06:33.445Z,5.6
2022-09-10T21:08:32.187Z,5.6
2022-09-10T21:10:35.253Z,5.6
2022-09-10T21:12:32.342Z,5.6
2022-09-10T21:14:32.389Z,5.6
2022-09-10T21:16:33.822Z,5.5
2022-09-10T21:18:32.543Z,5.5
2022-09-10T21:20:32.486Z,5.4
2022-09-10T21:22:32.724Z,5.4
2022-09-10T21:24:32.553Z,5.4
2022-09-10T21:26:34.361Z,5.4
2022-09-10T21:28:32.889Z,5.4
2022-09-10T21:30:32.869Z,5.4
2022-09-10T21:32:32.767Z,5.3
2022-09-10T21:34:32.810Z,5.3
2022-09-10T21:36:35.083Z,5.3
2022-09-10T21:38:33.684Z,5.3
2022-09-10T21:40:32.922Z,5.3
2022-09-10T21:42:33.115Z,5.3
2022-09-10T21:44:32.990Z,5.1
2022-09-10T21:46:33.204Z,5.2
2022-09-10T21:48:33.174Z,5.2
2022-09-10T21:50:33.091Z,5.2
2022-09-10T21:52:33.226Z,5.2
2022-09-10T21:54:33.167Z,5.2
2022-09-10T21:56:33.306Z,5.1
2022-09-10T21:58:35.042Z,5.1
2022-09-10T22:00:33.328Z,5.1
2022-09-10T22:02:33.376Z,5.1
2022-09-10T22:04:33.357Z,5.1
2022-09-10T22:06:33.594Z,5.1
2022-09-10T22:08:34.278Z,5.1
2022-09-10T22:10:37.085Z,5
2022-09-10T22:12:33.676Z,5
2022-09-10T22:14:33.592Z,5
2022-09-10T22:16:34.699Z,5.1
2022-09-10T22:18:34.944Z,5.1
2022-09-10T22:20:34.643Z,5.1
2022-09-10T22:22:33.879Z,5.1
2022-09-10T22:24:33.836Z,5.1
2022-09-10T22:26:34.712Z,5.1
2022-09-10T22:28:35.039Z,5.1
2022-09-10T22:30:36.372Z,5.1
2022-09-10T22:32:33.993Z,5.1
2022-09-10T22:34:33.930Z,5.1
2022-09-10T22:36:35.845Z,5.1
2022-09-10T22:38:34.122Z,5.1
2022-09-10T22:40:34.064Z,5.1
2022-09-10T22:42:34.131Z,5.1
2022-09-10T22:44:34.207Z,5.1
2022-09-10T22:46:35.521Z,5.1
2022-09-10T22:48:35.123Z,5.1
2022-09-10T22:50:34.819Z,5.1
2022-09-10T22:52:34.394Z,5
2022-09-10T22:54:34.361Z,5
2022-09-10T22:56:34.744Z,5.1
2022-09-10T22:58:34.856Z,5.1
2022-09-10T23:00:35.318Z,5.1
2022-09-10T23:02:34.498Z,5.1
2022-09-10T23:04:34.553Z,5.1
2022-09-10T23:06:37.159Z,5.2
2022-09-10T23:08:35.597Z,5.3
2022-09-10T23:10:34.654Z,5.3
2022-09-10T23:12:34.878Z,5.3
2022-09-10T23:14:34.730Z,5.3
2022-09-10T23:16:36.295Z,5.1
2022-09-10T23:18:34.878Z,5.1
2022-09-10T23:20:34.872Z,5
2022-09-10T23:22:35.131Z,5
2022-09-10T23:24:35.025Z,5
2022-09-10T23:26:35.349Z,5.1
2022-09-10T23:28:35.482Z,5.1
2022-09-10T23:30:35.162Z,5.1
2022-09-10T23:32:35.110Z,5.1
2022-09-10T23:34:35.198Z,5.1
2022-09-10T23:36:37.198Z,4.9
2022-09-10T23:38:35.591Z,4.9
2022-09-10T23:40:35.238Z,4.9
2022-09-10T23:42:35.384Z,4.9
2022-09-10T23:44:35.335Z,4.9
2022-09-10T23:46:36.180Z,5
2022-09-10T23:48:35.754Z,5
2022-09-10T23:50:35.518Z,5
2022-09-10T23:52:35.565Z,4.8
2022-09-10T23:54:35.782Z,4.8
2022-09-10T23:56:35.703Z,4.7
2022-09-10T23:58:35.665Z,4.6
